Time;durP1;ratioP1;P1;durP2;ratioP2;P2;SDS_P1;SDS_P2;PMS_P1;PMS_P2;Temp;Humidity;BMP_temperature;BMP_pressure;BME280_temperature;BME280_humidity;BME280_pressure;Samples;Min_cycle;Max_cycle;Signal;HPM_P1;HPM_P2
2022/06/14 00:03:17;;;;;;;2.72;1.25;;;;;;;17.38;41.31;101799.94;5193866;28;20532;-78
2022/06/14 00:05:49;;;;;;;0.38;0.38;;;;;;;17.34;41.44;101800.97;5178288;28;20053;-78
2022/06/14 00:08:22;;;;;;;0.30;0.30;;;;;;;17.30;41.48;101805.53;5193493;28;20033;-78
2022/06/14 00:10:55;;;;;;;0.35;0.35;;;;;;;17.26;41.47;101812.75;5176590;28;20115;-78
2022/06/14 00:13:26;;;;;;;1.05;1.05;;;;;;;17.20;41.60;101810.34;5198004;28;20163;-78
2022/06/14 00:15:57;;;;;;;0.30;0.30;;;;;;;17.19;41.75;101808.59;5196377;28;20425;-78
2022/06/14 00:18:28;;;;;;;0.30;0.30;;;;;;;17.15;41.63;101818.47;5196894;28;20036;-78
2022/06/14 00:20:59;;;;;;;0.20;0.20;;;;;;;17.11;41.79;101810.69;5179380;28;20068;-78
2022/06/14 00:23:30;;;;;;;0.75;0.75;;;;;;;17.08;41.89;101810.78;5177824;28;20030;-78
2022/06/14 00:26:02;;;;;;;0.30;0.30;;;;;;;17.02;41.86;101806.59;5175190;28;20857;-77
2022/06/14 00:28:34;;;;;;;0.50;0.50;;;;;;;16.98;41.78;101816.41;5193044;28;20044;-77
2022/06/14 00:31:26;;;;;;;0.57;0.55;;;;;;;16.94;41.98;101812.16;5196271;28;20041;-78
2022/06/14 00:33:57;;;;;;;1.55;1.45;;;;;;;16.92;42.30;101810.47;5200034;28;20041;-77
2022/06/14 00:36:32;;;;;;;0.20;0.20;;;;;;;16.88;42.22;101812.34;5205131;28;20188;-78
2022/06/14 00:39:06;;;;;;;0.40;0.40;;;;;;;16.85;42.17;101807.16;5178773;28;20037;-77
2022/06/14 00:41:39;;;;;;;0.77;0.77;;;;;;;16.81;42.22;101813.50;5175981;28;20045;-78
2022/06/14 00:44:29;;;;;;;0.20;0.20;;;;;;;16.77;42.24;101804.81;5195776;28;20245;-78
2022/06/14 00:47:08;;;;;;;3.00;0.60;;;;;;;16.75;42.29;101803.09;5218173;28;20022;-77
2022/06/14 00:49:43;;;;;;;2.10;1.00;;;;;;;16.71;42.42;101796.19;5194560;28;20564;-78
2022/06/14 00:52:31;;;;;;;3.38;1.38;;;;;;;16.66;42.38;101794.56;5176098;28;20045;-77
2022/06/14 00:55:11;;;;;;;0.30;0.30;;;;;;;16.64;42.72;101796.41;5187482;28;20084;-77
2022/06/14 00:57:48;;;;;;;1.40;1.20;;;;;;;16.59;42.49;101782.44;5216625;28;20033;-78
2022/06/14 01:00:24;;;;;;;0.43;0.43;;;;;;;16.58;42.64;101785.16;5194769;28;20060;-78
2022/06/14 01:02:58;;;;;;;0.43;0.43;;;;;;;16.53;42.58;101788.81;5202232;28;20033;-77
2022/06/14 01:08:28;;;;;;;0.35;0.35;;;;;;;16.48;42.81;101785.47;5167119;28;20071;-78
2022/06/14 01:10:59;;;;;;;0.20;0.20;;;;;;;16.43;43.18;101782.16;5162719;28;20092;-78
2022/06/14 01:13:30;;;;;;;0.45;0.45;;;;;;;16.41;43.07;101783.97;5179334;28;20037;-78
2022/06/14 01:16:00;;;;;;;0.98;0.50;;;;;;;16.40;43.19;101784.03;5160325;28;20041;-78
2022/06/14 01:18:31;;;;;;;0.45;0.45;;;;;;;16.35;43.13;101779.75;5189678;28;20038;-79
2022/06/14 01:21:01;;;;;;;6.75;0.40;;;;;;;16.31;43.28;101782.56;5196403;28;20682;-78
2022/06/14 01:23:33;;;;;;;2.38;1.85;;;;;;;16.29;43.21;101776.44;5180725;28;20025;-78
2022/06/14 01:26:18;;;;;;;0.93;0.90;;;;;;;16.28;43.32;101782.69;5192316;28;20056;-78
2022/06/14 01:28:53;;;;;;;0.20;0.20;;;;;;;16.23;43.28;101782.84;5190911;28;20432;-78
2022/06/14 01:31:28;;;;;;;2.00;1.27;;;;;;;16.19;43.32;101773.25;5208178;28;20100;-77
2022/06/14 01:34:04;;;;;;;0.45;0.45;;;;;;;16.16;43.34;101773.34;5191904;28;20033;-78
2022/06/14 01:36:38;;;;;;;1.45;1.20;;;;;;;16.12;43.43;101769.09;5166787;28;20037;-77
2022/06/14 01:39:14;;;;;;;0.20;0.20;;;;;;;16.08;43.60;101773.63;5195798;28;20033;-77
2022/06/14 01:42:12;;;;;;;0.22;0.22;;;;;;;16.06;43.43;101772.78;5193297;28;20040;-77
2022/06/14 01:44:52;;;;;;;0.50;0.50;;;;;;;16.01;43.89;101780.88;5174251;28;20418;-76
2022/06/14 01:47:53;;;;;;;0.43;0.43;;;;;;;15.98;43.78;101777.47;5196421;28;20033;-78
2022/06/14 01:54:12;;;;;;;0.20;0.20;;;;;;;15.89;43.89;101782.16;5189093;28;20052;-77
2022/06/14 01:57:04;;;;;;;0.20;0.20;;;;;;;15.85;43.91;101777.91;5193534;28;20904;-77
2022/06/14 01:59:57;;;;;;;0.20;0.20;;;;;;;15.83;43.89;101786.72;5176025;28;20445;-76
2022/06/14 02:02:40;;;;;;;1.80;1.70;;;;;;;15.76;43.79;101779.91;5193438;28;20044;-78
2022/06/14 02:05:20;;;;;;;0.87;0.87;;;;;;;15.72;43.73;101773.84;5191565;28;20280;-77
2022/06/14 02:08:01;;;;;;;0.45;0.45;;;;;;;15.70;44.15;101779.22;5157827;28;20299;-77
2022/06/14 02:10:39;;;;;;;0.50;0.50;;;;;;;15.62;44.09;101778.59;5162793;28;20064;-79
2022/06/14 02:13:25;;;;;;;0.38;0.38;;;;;;;15.59;44.06;101773.38;5178196;28;20477;-77
2022/06/14 02:16:06;;;;;;;0.20;0.20;;;;;;;15.54;44.57;101775.31;5178048;28;22024;-77
2022/06/14 02:18:47;;;;;;;0.50;0.50;;;;;;;15.53;44.24;101778.88;5211295;28;20921;-77
2022/06/14 02:21:38;;;;;;;1.50;1.15;;;;;;;15.50;44.37;101778.94;5195460;28;20064;-77
2022/06/14 02:24:14;;;;;;;3.58;1.45;;;;;;;15.46;44.39;101782.63;5181360;28;20034;-80
2022/06/14 02:27:01;;;;;;;2.17;1.67;;;;;;;15.43;44.16;101781.78;5182891;28;20033;-78
2022/06/14 02:29:39;;;;;;;0.85;0.77;;;;;;;15.39;44.37;101774.88;5164684;28;20103;-77
2022/06/14 02:32:21;;;;;;;1.65;1.40;;;;;;;15.39;44.62;101766.94;5182688;28;20033;-77
2022/06/14 02:35:34;;;;;;;0.30;0.30;;;;;;;15.33;44.47;101767.09;5206699;28;20060;-77
2022/06/14 02:38:10;;;;;;;0.20;0.20;;;;;;;15.26;44.92;101769.09;5188312;28;20049;-77
2022/06/14 02:41:01;;;;;;;1.58;0.80;;;;;;;15.26;44.63;101760.28;5165974;28;20239;-78
2022/06/14 02:43:39;;;;;;;1.40;0.88;;;;;;;15.20;45.00;101755.19;5196407;28;20039;-78
2022/06/14 02:46:33;;;;;;;0.30;0.30;;;;;;;15.17;44.71;101750.88;5196911;28;20128;-77
2022/06/14 02:49:19;;;;;;;0.20;0.20;;;;;;;15.17;44.96;101757.91;5200076;28;20718;-77
2022/06/14 02:51:52;;;;;;;15.98;2.05;;;;;;;15.12;44.65;101744.84;5182457;28;20037;-78
2022/06/14 02:54:37;;;;;;;0.25;0.25;;;;;;;15.09;44.92;101753.72;5199247;28;20038;-77
2022/06/14 02:57:19;;;;;;;0.40;0.40;;;;;;;15.06;44.97;101751.19;5166540;28;20120;-78
2022/06/14 03:00:06;;;;;;;0.52;0.52;;;;;;;15.03;45.04;101748.63;5199486;28;20033;-78
2022/06/14 03:02:43;;;;;;;4.20;1.38;;;;;;;15.01;44.99;101750.44;5166141;28;20665;-77
2022/06/14 03:05:33;;;;;;;0.95;0.50;;;;;;;14.98;45.25;101755.81;5198881;28;20039;-77
2022/06/14 03:08:14;;;;;;;0.55;0.55;;;;;;;14.93;45.34;101747.16;5185286;28;20052;-77
2022/06/14 03:11:00;;;;;;;0.40;0.40;;;;;;;14.91;45.75;101749.00;5197688;28;20484;-78
2022/06/14 03:14:03;;;;;;;0.20;0.20;;;;;;;14.88;45.28;101749.06;5178299;28;20048;-77
2022/06/14 03:16:42;;;;;;;0.38;0.38;;;;;;;14.84;45.34;101748.28;5182441;28;20101;-77
2022/06/14 03:19:36;;;;;;;0.28;0.28;;;;;;;14.82;45.42;101743.97;5179093;28;20033;-78
2022/06/14 03:22:32;;;;;;;0.43;0.43;;;;;;;14.81;45.46;101747.53;5181885;28;20033;-77
2022/06/14 03:25:08;;;;;;;0.30;0.30;;;;;;;14.77;45.70;101744.94;5213582;28;20041;-77
2022/06/14 03:27:45;;;;;;;0.60;0.60;;;;;;;14.73;45.63;101740.69;5181214;28;20389;-78
2022/06/14 03:30:16;;;;;;;5.50;1.70;;;;;;;14.73;45.86;101743.31;5194358;28;20047;-78
2022/06/14 03:33:01;;;;;;;0.30;0.30;;;;;;;14.69;45.56;101739.03;5178938;28;20037;-77
2022/06/14 03:35:41;;;;;;;0.28;0.28;;;;;;;14.69;45.96;101739.03;5148848;28;20045;-79
2022/06/14 03:38:20;;;;;;;1.20;0.50;;;;;;;14.68;46.13;101736.44;5198523;28;20033;-78
2022/06/14 03:40:51;;;;;;;1.95;0.93;;;;;;;14.61;46.21;101741.84;5196371;28;20033;-78
2022/06/14 03:43:22;;;;;;;0.20;0.20;;;;;;;14.57;45.91;101732.28;5196991;28;20033;-77
2022/06/14 03:46:05;;;;;;;0.50;0.50;;;;;;;14.55;46.24;101736.72;5204584;28;20052;-77
2022/06/14 03:48:38;;;;;;;2.13;1.48;;;;;;;14.55;46.43;101736.72;5183040;28;20029;-78
2022/06/14 03:51:14;;;;;;;;;;;;;;;14.53;46.28;101742.97;5193846;28;20092;-77
2022/06/14 03:53:48;;;;;;;0.30;0.30;;;;;;;14.47;46.38;101746.63;5172468;28;19917;-77
2022/06/14 03:56:37;;;;;;;;;;;;;;;14.45;46.40;101751.09;5159433;28;20034;-77
2022/06/14 03:59:31;;;;;;;1.38;1.27;;;;;;;14.40;46.42;101738.03;5194405;28;20006;-77
2022/06/14 04:02:53;;;;;;;1.02;0.88;;;;;;;14.40;46.43;101740.66;5205029;28;20624;-78
2022/06/14 04:05:32;;;;;;;1.48;1.13;;;;;;;14.35;46.38;101747.81;5175875;28;20497;-78
2022/06/14 04:08:09;;;;;;;0.20;0.20;;;;;;;14.36;46.69;101752.19;5162617;28;20033;-78
2022/06/14 04:10:49;;;;;;;0.43;0.40;;;;;;;14.35;46.73;101758.38;5177460;28;20042;-78
2022/06/14 04:13:38;;;;;;;0.75;0.75;;;;;;;14.33;46.70;101753.16;5163135;28;20037;-77
2022/06/14 04:16:25;;;;;;;0.40;0.40;;;;;;;14.33;46.86;101753.16;5201137;28;20360;-76
2022/06/14 04:19:10;;;;;;;0.80;0.80;;;;;;;14.30;46.88;101747.94;5195937;28;20048;-76
2022/06/14 04:22:01;;;;;;;5.72;2.13;;;;;;;14.31;47.22;101746.19;5193443;28;20037;-77
2022/06/14 04:24:49;;;;;;;1.27;0.73;;;;;;;14.27;46.84;101739.25;5191538;28;20052;-78
2022/06/14 04:27:22;;;;;;;0.65;0.65;;;;;;;14.25;46.89;101749.84;5196493;28;20167;-77
2022/06/14 04:30:12;;;;;;;;;;;;;;;14.23;47.19;101746.38;5195362;28;20084;-77
2022/06/14 04:33:02;;;;;;;0.45;0.45;;;;;;;14.25;47.10;101749.00;5197048;28;19913;-77
2022/06/14 04:35:42;;;;;;;0.85;0.85;;;;;;;14.24;47.58;101745.47;5195978;28;20053;-77
2022/06/14 04:38:25;;;;;;;0.88;0.88;;;;;;;14.21;47.18;101742.06;5179070;28;20033;-78
2022/06/14 04:41:33;;;;;;;0.30;0.30;;;;;;;14.23;47.35;101748.16;5161981;28;20045;-77
2022/06/14 04:44:18;;;;;;;0.30;0.30;;;;;;;14.23;47.19;101742.88;5178923;28;20033;-79
2022/06/14 04:47:14;;;;;;;3.22;1.40;;;;;;;14.21;47.34;101742.94;5194218;28;20041;-78
2022/06/14 04:49:52;;;;;;;0.57;0.57;;;;;;;14.25;47.83;101741.06;5176677;28;20118;-77
2022/06/14 04:52:38;;;;;;;0.30;0.30;;;;;;;14.23;47.42;101745.53;5193801;28;20115;-78
2022/06/14 04:55:38;;;;;;;0.38;0.38;;;;;;;14.23;47.53;101751.66;5193408;28;20529;-78
2022/06/14 04:58:18;;;;;;;0.43;0.43;;;;;;;14.26;48.11;101746.31;5191298;28;20045;-78
2022/06/14 05:00:57;;;;;;;1.15;0.90;;;;;;;14.28;48.23;101756.81;5176697;28;20571;-78
2022/06/14 05:03:37;;;;;;;0.50;0.50;;;;;;;14.31;48.47;101756.75;5178856;28;20525;-78
2022/06/14 05:06:16;;;;;;;0.20;0.20;;;;;;;14.31;48.59;101754.97;5159391;28;20076;-79
2022/06/14 05:09:10;;;;;;;0.57;0.57;;;;;;;14.32;48.53;101756.69;5194267;28;20037;-79
2022/06/14 05:11:49;;;;;;;0.60;0.60;;;;;;;14.33;48.65;101752.31;5176745;28;20461;-79
2022/06/14 05:14:26;;;;;;;0.40;0.40;;;;;;;14.35;48.72;101755.75;5180061;28;20096;-78
2022/06/14 05:17:07;;;;;;;0.20;0.20;;;;;;;14.38;49.44;101754.81;5190206;28;20030;-78
2022/06/14 05:19:54;;;;;;;2.58;0.95;;;;;;;14.42;49.78;101767.03;5177882;28;20052;-79
2022/06/14 05:22:36;;;;;;;0.30;0.30;;;;;;;14.43;49.12;101764.31;5180060;28;20025;-79
2022/06/14 05:25:09;;;;;;;0.20;0.20;;;;;;;14.43;49.17;101769.59;5171947;28;20049;-79
2022/06/14 05:27:58;;;;;;;0.40;0.40;;;;;;;14.48;50.38;101766.84;5177717;28;20038;-78
2022/06/14 05:30:41;;;;;;;0.32;0.32;;;;;;;14.48;49.59;101762.44;5169355;28;20052;-78
2022/06/14 05:33:25;;;;;;;0.60;0.60;;;;;;;14.57;50.20;101765.75;5196570;28;20021;-77
2022/06/14 05:36:04;;;;;;;0.82;0.75;;;;;;;14.56;49.94;101764.88;5176448;28;20073;-78
2022/06/14 05:38:50;;;;;;;0.85;0.85;;;;;;;14.58;49.91;101765.69;5193897;28;20048;-78
2022/06/14 05:41:28;;;;;;;0.20;0.20;;;;;;;14.58;49.55;101767.50;5158374;28;20165;-78
2022/06/14 05:44:12;;;;;;;0.70;0.70;;;;;;;14.61;50.09;101772.66;5143854;28;20500;-78
2022/06/14 05:46:51;;;;;;;0.40;0.35;;;;;;;14.60;49.65;101768.28;5176734;28;20049;-79
2022/06/14 05:49:29;;;;;;;1.15;1.15;;;;;;;14.71;51.79;101763.63;5174049;28;20041;-78
2022/06/14 05:52:08;;;;;;;0.68;0.68;;;;;;;14.70;49.71;101761.88;5193620;28;20628;-78
2022/06/14 05:54:46;;;;;;;0.40;0.40;;;;;;;14.70;49.78;101755.75;5185178;28;20061;-78
2022/06/14 05:57:25;;;;;;;0.38;0.38;;;;;;;14.72;50.07;101768.00;5173941;28;20091;-79
2022/06/14 06:00:11;;;;;;;0.40;0.40;;;;;;;14.73;50.21;101759.16;5180538;28;20446;-78
2022/06/14 06:03:18;;;;;;;0.40;0.40;;;;;;;14.74;49.97;101768.84;5193216;28;20125;-78
2022/06/14 06:05:57;;;;;;;0.30;0.30;;;;;;;14.80;50.05;101773.06;5175792;28;20029;-79
2022/06/14 06:08:39;;;;;;;0.82;0.82;;;;;;;14.77;50.08;101767.88;5191984;28;20033;-78
2022/06/14 06:11:19;;;;;;;0.73;0.73;;;;;;;14.83;50.45;101769.47;5172931;28;20046;-78
2022/06/14 06:14:01;;;;;;;0.88;0.88;;;;;;;14.83;50.09;101764.19;5160146;28;20421;-78
2022/06/14 06:19:19;;;;;;;12.15;3.08;;;;;;;14.91;51.05;101768.34;5163501;28;20349;-78
2022/06/14 06:21:56;;;;;;;26.58;3.50;;;;;;;14.91;50.59;101770.13;5172301;28;20088;-78
2022/06/14 06:24:41;;;;;;;0.30;0.30;;;;;;;14.95;50.66;101771.75;5172596;28;20056;-78
2022/06/14 06:27:12;;;;;;;2.75;1.45;;;;;;;14.99;50.50;101773.41;5202093;28;20029;-78
2022/06/14 06:29:59;;;;;;;0.32;0.32;;;;;;;15.01;50.66;101776.00;5157139;28;20437;-78
2022/06/14 06:32:31;;;;;;;1.08;1.08;;;;;;;15.03;50.59;101774.19;5172685;28;20033;-79
2022/06/14 06:35:03;;;;;;;1.15;0.88;;;;;;;15.04;50.76;101773.28;5166440;28;20122;-78
2022/06/14 06:37:38;;;;;;;0.85;0.85;;;;;;;15.08;51.06;101774.91;5174061;28;20034;-78
2022/06/14 06:40:15;;;;;;;1.52;1.42;;;;;;;15.09;50.52;101780.16;5170743;28;20068;-79
2022/06/14 06:42:56;;;;;;;1.02;0.90;;;;;;;15.13;50.61;101780.06;5174389;28;20030;-78
2022/06/14 06:45:35;;;;;;;1.48;1.38;;;;;;;15.15;50.54;101778.25;5176476;28;20046;-78
2022/06/14 06:48:15;;;;;;;0.85;0.77;;;;;;;15.22;51.17;101777.16;5163590;28;20030;-78
2022/06/14 06:50:51;;;;;;;0.40;0.40;;;;;;;15.22;50.70;101774.53;5184195;28;20656;-78
2022/06/14 06:53:24;;;;;;;0.40;0.40;;;;;;;15.23;50.86;101778.91;5172016;28;20030;-78
2022/06/14 06:55:59;;;;;;;2.42;0.93;;;;;;;15.21;51.25;101778.91;5152902;28;20093;-77
2022/06/14 06:58:36;;;;;;;2.05;1.60;;;;;;;15.25;51.40;101783.22;5175347;28;20279;-77
2022/06/14 07:01:31;;;;;;;0.63;0.63;;;;;;;15.27;50.94;101780.53;5143660;28;20450;-77
2022/06/14 07:04:07;;;;;;;0.35;0.35;;;;;;;15.30;51.41;101788.38;5178414;28;20461;-76
2022/06/14 07:06:42;;;;;;;2.13;1.17;;;;;;;15.37;51.43;101778.50;5175990;28;20593;-77
2022/06/14 07:09:12;;;;;;;1.48;1.42;;;;;;;15.37;51.10;101779.34;5170526;28;20121;-77
2022/06/14 07:11:48;;;;;;;0.40;0.40;;;;;;;15.43;51.65;101786.22;5197321;28;20121;-76
2022/06/14 07:14:31;;;;;;;0.50;0.50;;;;;;;15.41;52.06;101777.47;5178300;28;20042;-77
2022/06/14 07:17:13;;;;;;;0.40;0.40;;;;;;;15.46;51.47;101777.31;5178133;28;20029;-77
2022/06/14 07:19:51;;;;;;;21.38;0.95;;;;;;;15.50;51.47;101784.25;5178213;28;20046;-77
2022/06/14 07:22:37;;;;;;;0.60;0.60;;;;;;;15.52;52.91;101777.13;5181275;28;20041;-77
2022/06/14 07:25:18;;;;;;;0.30;0.30;;;;;;;15.50;52.21;101778.94;5181995;28;20038;-76
2022/06/14 07:28:01;;;;;;;0.43;0.43;;;;;;;15.57;51.72;101788.47;5190727;28;21329;-76
2022/06/14 07:30:39;;;;;;;2.15;1.95;;;;;;;15.60;51.93;101785.69;5175855;28;20096;-76
2022/06/14 07:33:10;;;;;;;1.05;0.88;;;;;;;15.69;51.73;101789.84;5175846;28;20034;-77
2022/06/14 07:35:51;;;;;;;0.30;0.30;;;;;;;15.70;51.11;101783.66;5205378;28;20034;-76
2022/06/14 07:38:39;;;;;;;1.33;1.08;;;;;;;15.73;52.84;101792.34;5160562;28;20628;-76
2022/06/14 07:41:10;;;;;;;8.93;1.08;;;;;;;15.71;52.52;101782.69;5171639;28;20050;-76
2022/06/14 07:43:40;;;;;;;0.77;0.77;;;;;;;15.78;52.01;101788.69;5159941;28;20036;-76
2022/06/14 07:46:18;;;;;;;0.65;0.65;;;;;;;15.73;52.64;101791.47;5157105;28;20046;-76
2022/06/14 07:48:59;;;;;;;0.90;0.90;;;;;;;15.85;51.72;101784.94;5185297;28;20052;-76
2022/06/14 07:51:50;;;;;;;3.70;0.82;;;;;;;15.88;51.39;101780.41;5175230;28;20312;-76
2022/06/14 07:54:30;;;;;;;0.57;0.57;;;;;;;15.94;51.45;101787.31;5176179;28;20069;-77
2022/06/14 07:57:09;;;;;;;0.60;0.60;;;;;;;15.96;52.20;101785.47;5157392;28;20382;-77
2022/06/14 07:59:51;;;;;;;2.05;1.33;;;;;;;15.99;52.02;101787.16;5207004;28;20046;-78
2022/06/14 08:02:36;;;;;;;0.20;0.20;;;;;;;16.00;51.10;101773.84;5178762;28;20117;-78
2022/06/14 08:05:18;;;;;;;0.73;0.73;;;;;;;16.08;51.40;101772.72;5174602;28;20096;-78
2022/06/14 08:07:52;;;;;;;0.57;0.57;;;;;;;16.08;50.96;101775.38;5208683;28;20064;-78
2022/06/14 08:10:30;;;;;;;0.77;0.77;;;;;;;16.03;51.46;101779.06;5173013;28;20534;-78
2022/06/14 08:13:10;;;;;;;0.22;0.22;;;;;;;16.08;50.88;101776.25;5160032;28;20123;-78
2022/06/14 08:15:48;;;;;;;3.53;1.55;;;;;;;16.16;50.78;101765.41;5173483;28;20042;-78
2022/06/14 08:18:25;;;;;;;0.20;0.20;;;;;;;16.26;50.44;101765.97;5188593;28;20104;-75
2022/06/14 08:21:25;;;;;;;0.55;0.35;;;;;;;16.17;50.80;101764.47;5191167;28;20529;-75
2022/06/14 08:24:03;;;;;;;0.40;0.40;;;;;;;16.30;50.98;101765.81;5160392;28;20037;-77
2022/06/14 08:26:56;;;;;;;1.45;0.63;;;;;;;16.35;50.50;101765.66;5175581;28;20386;-77
2022/06/14 08:29:33;;;;;;;0.30;0.30;;;;;;;16.34;50.47;101763.91;5192808;28;20081;-77
2022/06/14 08:32:12;;;;;;;0.82;0.82;;;;;;;16.33;50.50;101756.88;5192462;28;20667;-78
2022/06/14 08:34:50;;;;;;;0.68;0.68;;;;;;;16.34;50.49;101753.31;5192584;28;20054;-78
2022/06/14 08:37:26;;;;;;;14.32;1.95;;;;;;;16.34;50.27;101745.38;5141891;28;20065;-78
2022/06/14 08:40:06;;;;;;;2.47;1.30;;;;;;;16.31;50.58;101751.66;5172932;28;20042;-77
2022/06/14 08:42:43;;;;;;;0.90;0.88;;;;;;;16.41;50.62;101746.00;5165610;28;20029;-78
2022/06/14 08:45:21;;;;;;;0.35;0.35;;;;;;;16.35;50.29;101742.66;5186998;28;20037;-77
2022/06/14 08:48:06;;;;;;;1.23;1.15;;;;;;;16.45;50.23;101740.56;5178412;28;20043;-78
2022/06/14 08:51:03;;;;;;;0.75;0.75;;;;;;;16.48;49.99;101744.91;5176626;28;20041;-77
2022/06/14 08:53:45;;;;;;;1.42;0.60;;;;;;;16.54;49.80;101731.44;5162412;28;20512;-78
2022/06/14 08:56:19;;;;;;;0.50;0.50;;;;;;;16.60;49.51;101735.66;5209357;28;20056;-76
2022/06/14 08:59:04;;;;;;;0.30;0.30;;;;;;;16.56;49.74;101726.06;5197654;28;20292;-76
2022/06/14 09:01:56;;;;;;;0.80;0.65;;;;;;;16.53;49.75;101729.69;5158281;28;20037;-77
2022/06/14 09:05:01;;;;;;;0.20;0.20;;;;;;;16.49;50.21;101734.25;5145193;28;20068;-77
2022/06/14 09:07:55;;;;;;;0.32;0.32;;;;;;;16.46;49.93;101723.75;5183377;28;20032;-77
2022/06/14 09:10:26;;;;;;;0.73;0.73;;;;;;;16.56;49.64;101724.31;5202964;28;20038;-77
2022/06/14 09:13:24;;;;;;;0.63;0.63;;;;;;;16.59;49.43;101721.50;5163043;28;20112;-77
2022/06/14 09:16:07;;;;;;;0.52;0.52;;;;;;;16.51;49.54;101723.56;5187937;28;20041;-77
2022/06/14 09:19:24;;;;;;;1.75;1.15;;;;;;;16.54;49.56;101720.84;5188188;28;20037;-77
2022/06/14 09:22:18;;;;;;;0.43;0.43;;;;;;;16.72;49.50;101718.44;5176673;28;20033;-78
2022/06/14 09:24:54;;;;;;;1.90;1.20;;;;;;;16.72;49.33;101721.94;5182099;28;20561;-77
2022/06/14 09:27:44;;;;;;;0.70;0.43;;;;;;;16.80;49.10;101732.25;5183824;28;20036;-78
2022/06/14 09:30:29;;;;;;;0.20;0.20;;;;;;;16.86;48.83;101729.38;5186043;28;20411;-78
2022/06/14 09:33:23;;;;;;;3.33;2.13;;;;;;;16.89;48.06;101731.91;5178374;28;20509;-77
2022/06/14 09:36:19;;;;;;;3.10;0.95;;;;;;;16.83;48.05;101729.47;5126782;28;20038;-78
2022/06/14 09:38:58;;;;;;;0.52;0.40;;;;;;;16.85;48.37;101730.28;5159343;28;20049;-78
2022/06/14 09:41:34;;;;;;;0.63;0.63;;;;;;;16.87;48.40;101725.81;5157788;28;20050;-77
2022/06/14 09:44:20;;;;;;;0.20;0.20;;;;;;;16.96;48.84;101725.50;5158885;28;20137;-78
2022/06/14 09:47:21;;;;;;;0.20;0.20;;;;;;;16.96;48.55;101733.44;5206006;28;20072;-78
2022/06/14 09:50:34;;;;;;;0.63;0.63;;;;;;;17.08;48.36;101723.28;5151956;28;20124;-78
2022/06/14 09:53:33;;;;;;;7.25;1.02;;;;;;;17.10;48.60;101724.97;5081261;29;20674;-78
2022/06/14 09:56:31;;;;;;;0.30;0.30;;;;;;;17.18;48.55;101724.66;5067292;29;20119;-77
2022/06/14 09:59:20;;;;;;;0.43;0.43;;;;;;;17.24;48.25;101720.91;5184648;28;20025;-78
2022/06/14 10:02:00;;;;;;;1.27;0.80;;;;;;;17.19;48.58;101715.78;5172454;28;20045;-77
2022/06/14 10:04:34;;;;;;;2.85;1.50;;;;;;;17.33;48.59;101719.66;5173150;28;20107;-78
2022/06/14 10:07:23;;;;;;;;;;;;;;;17.43;47.96;101715.72;5202018;28;20037;-76
2022/06/14 10:10:10;;;;;;;4.28;0.25;;;;;;;17.53;47.97;101717.09;5181588;28;19921;-76
2022/06/14 10:13:05;;;;;;;0.30;0.30;;;;;;;17.50;47.79;101717.22;5196377;28;20034;-76
2022/06/14 10:16:00;;;;;;;0.25;0.25;;;;;;;17.49;47.81;101717.28;5175962;28;20042;-76
2022/06/14 10:18:40;;;;;;;0.52;0.52;;;;;;;17.50;48.42;101716.34;5177783;28;20171;-76
2022/06/14 10:21:18;;;;;;;1.23;0.70;;;;;;;17.63;48.15;101701.66;5192127;28;20401;-76
2022/06/14 10:24:13;;;;;;;0.50;0.50;;;;;;;17.66;48.12;101695.34;5180561;28;20110;-76
2022/06/14 10:29:48;;;;;;;0.30;0.30;;;;;;;17.76;47.25;101692.28;5175987;28;20065;-76
2022/06/14 10:32:31;;;;;;;0.20;0.20;;;;;;;17.87;48.00;101690.94;5178714;28;20041;-76
2022/06/14 10:35:04;;;;;;;0.53;0.53;;;;;;;17.86;47.38;101691.84;5192976;28;20110;-76
2022/06/14 10:37:54;;;;;;;0.20;0.20;;;;;;;17.90;47.43;101689.00;5164218;28;20037;-76
2022/06/14 10:40:40;;;;;;;0.63;0.63;;;;;;;18.02;46.40;101684.16;5195974;28;20186;-77
2022/06/14 10:43:42;;;;;;;0.28;0.28;;;;;;;18.07;47.39;101682.13;5183075;28;20160;-77
2022/06/14 10:46:27;;;;;;;0.43;0.43;;;;;;;18.15;46.78;101676.50;5171219;28;20033;-76
2022/06/14 10:49:40;;;;;;;1.65;1.27;;;;;;;18.16;46.75;101675.59;5195092;28;20108;-77
2022/06/14 10:52:19;;;;;;;0.50;0.50;;;;;;;18.14;45.87;101675.63;5199797;28;20095;-77
2022/06/14 10:55:05;;;;;;;0.80;0.80;;;;;;;18.25;46.47;101676.03;5198679;28;20064;-77
2022/06/14 10:57:41;;;;;;;0.20;0.20;;;;;;;18.28;46.46;101666.22;5161905;28;20037;-77
2022/06/14 11:00:37;;;;;;;0.47;0.47;;;;;;;18.38;46.97;101663.06;5179148;28;20453;-77
2022/06/14 11:03:27;;;;;;;0.50;0.50;;;;;;;18.48;46.60;101670.63;5177406;28;20057;-77
2022/06/14 11:06:07;;;;;;;0.35;0.35;;;;;;;18.44;46.13;101664.59;5166156;28;20548;-77
2022/06/14 11:09:00;;;;;;;0.68;0.68;;;;;;;18.55;46.13;101659.63;5194380;28;20061;-77
2022/06/14 11:11:33;;;;;;;2.92;0.80;;;;;;;18.59;45.78;101662.16;5198378;28;20064;-77
2022/06/14 11:14:13;;;;;;;0.30;0.30;;;;;;;18.65;46.23;101648.56;5164556;28;20140;-76
2022/06/14 11:17:02;;;;;;;0.95;0.90;;;;;;;18.77;45.55;101653.34;5194864;28;20053;-77
2022/06/14 11:20:15;;;;;;;0.65;0.65;;;;;;;18.84;44.88;101638.81;5198692;28;20128;-78
2022/06/14 11:22:50;;;;;;;0.68;0.68;;;;;;;18.93;45.59;101642.84;5170996;28;20067;-78
2022/06/14 11:25:44;;;;;;;0.77;0.77;;;;;;;19.02;45.84;101637.09;5181415;28;20205;-78
2022/06/14 11:28:22;;;;;;;;;;;;;;;19.06;45.09;101631.66;5195174;28;20033;-78
2022/06/14 11:31:22;;;;;;;0.75;0.75;;;;;;;19.10;44.93;101628.75;5197730;28;19984;-78
2022/06/14 11:33:59;;;;;;;0.73;0.73;;;;;;;19.23;44.41;101622.81;5160571;28;20045;-78
2022/06/14 11:37:01;;;;;;;0.20;0.20;;;;;;;19.21;43.74;101622.91;5178613;28;20116;-78
2022/06/14 11:39:39;;;;;;;0.65;0.65;;;;;;;19.26;44.25;101614.69;5212423;28;20437;-78
2022/06/14 11:42:25;;;;;;;0.50;0.50;;;;;;;19.41;44.10;101615.75;5183012;28;20047;-78
2022/06/14 11:45:26;;;;;;;1.00;0.90;;;;;;;19.44;44.90;101611.13;5208134;28;20045;-78
2022/06/14 11:48:09;;;;;;;0.40;0.40;;;;;;;19.47;44.59;101608.28;5196915;28;20061;-78
2022/06/14 11:51:05;;;;;;;0.50;0.50;;;;;;;19.60;44.34;101605.03;5163131;28;20197;-78
2022/06/14 11:53:47;;;;;;;0.82;0.77;;;;;;;19.70;44.39;101600.97;5194636;28;20033;-78
2022/06/14 11:56:36;;;;;;;0.20;0.20;;;;;;;19.80;44.02;101602.19;5176334;28;20068;-78
2022/06/14 11:59:45;;;;;;;0.30;0.30;;;;;;;19.91;44.31;101601.66;5209045;28;20493;-78
2022/06/14 12:02:50;;;;;;;1.58;1.42;;;;;;;19.94;44.97;101590.84;5164938;28;20053;-80
2022/06/14 12:05:40;;;;;;;3.40;1.95;;;;;;;20.01;44.45;101591.38;5141540;28;20038;-80
2022/06/14 12:08:29;;;;;;;7.07;1.40;;;;;;;20.09;45.09;101586.50;5182466;28;20030;-80
2022/06/14 12:11:21;;;;;;;0.88;0.45;;;;;;;20.33;43.65;101583.44;5193819;28;20490;-80
2022/06/14 12:14:25;;;;;;;0.40;0.40;;;;;;;20.28;43.84;101585.53;5199526;28;20041;-80
2022/06/14 12:17:07;;;;;;;;;;;;;;;20.39;43.39;101587.59;5177730;28;20045;-79
2022/06/14 12:19:40;;;;;;;7.57;0.90;;;;;;;20.48;42.70;101586.22;5182604;28;19934;-80
2022/06/14 12:22:28;;;;;;;0.40;0.40;;;;;;;20.57;43.58;101580.38;5186572;28;20025;-80
2022/06/14 12:28:19;;;;;;;1.25;0.80;;;;;;;20.75;41.96;101574.06;5215632;28;20091;-80
2022/06/14 12:30:55;;;;;;;0.50;0.50;;;;;;;20.84;42.64;101566.47;5178685;28;20073;-80
2022/06/14 12:33:38;;;;;;;0.40;0.40;;;;;;;20.96;42.89;101570.25;5198982;28;20037;-80
2022/06/14 12:36:26;;;;;;;0.40;0.40;;;;;;;21.04;42.65;101574.16;5194756;28;20050;-80
2022/06/14 12:39:05;;;;;;;0.30;0.30;;;;;;;21.10;42.42;101564.13;5183777;28;20046;-80
2022/06/14 12:41:57;;;;;;;0.32;0.32;;;;;;;21.19;41.64;101555.56;5165707;28;20045;-80
2022/06/14 12:44:43;;;;;;;1.10;1.10;;;;;;;21.31;40.54;101554.84;5180927;28;20045;-80
2022/06/14 12:47:24;;;;;;;0.50;0.50;;;;;;;21.45;41.25;101548.69;5185487;28;20041;-80
2022/06/14 12:50:02;;;;;;;0.60;0.55;;;;;;;21.48;41.84;101535.16;5199614;28;20042;-81
2022/06/14 12:52:43;;;;;;;0.70;0.70;;;;;;;21.65;40.75;101534.16;5163241;28;20040;-80
2022/06/14 12:55:30;;;;;;;0.47;0.47;;;;;;;21.70;39.60;101526.69;5164783;28;20041;-80
2022/06/14 12:58:15;;;;;;;0.75;0.75;;;;;;;21.93;39.33;101535.13;5177780;28;20029;-80